createdAt,value
2017-10-11T00:00:53.745Z,11.50
2017-10-11T00:03:22.005Z,11.30
2017-10-11T00:05:49.882Z,11.40
2017-10-11T00:08:17.352Z,11.40
2017-10-11T00:10:44.849Z,11.30
2017-10-11T00:13:13.357Z,11.40
2017-10-11T00:15:40.962Z,11.30
2017-10-11T00:18:08.673Z,11.30
2017-10-11T00:20:36.145Z,11.20
2017-10-11T00:23:03.614Z,11.30
2017-10-11T00:25:31.102Z,11.30
2017-10-11T00:27:58.577Z,11.40
2017-10-11T00:30:26.837Z,11.50
2017-10-11T00:32:54.305Z,11.50
2017-10-11T00:35:22.544Z,11.60
2017-10-11T00:37:50.037Z,11.60
2017-10-11T00:40:18.273Z,11.60
2017-10-11T00:42:45.746Z,11.60
2017-10-11T00:45:13.234Z,11.60
2017-10-11T00:47:41.470Z,11.50
2017-10-11T00:50:08.945Z,11.50
2017-10-11T00:52:36.433Z,11.50
2017-10-11T00:55:03.928Z,11.50
2017-10-11T00:57:31.404Z,11.60
2017-10-11T00:59:58.877Z,11.60
2017-10-11T01:02:26.365Z,11.60
2017-10-11T01:04:53.838Z,11.70
2017-10-11T01:07:21.330Z,11.70
2017-10-11T01:09:49.057Z,11.70
2017-10-11T01:12:16.821Z,11.70
2017-10-11T01:14:44.313Z,11.70
2017-10-11T01:17:11.786Z,11.70
2017-10-11T01:19:39.258Z,11.70
2017-10-11T01:22:07.513Z,11.60
2017-10-11T01:24:34.985Z,11.60
2017-10-11T01:27:03.225Z,11.60
2017-10-11T01:29:30.966Z,11.60
2017-10-11T01:31:58.729Z,11.60
2017-10-11T01:34:26.205Z,11.70
2017-10-11T01:36:53.697Z,11.70
2017-10-11T01:39:21.168Z,11.70
2017-10-11T01:41:49.621Z,11.80
2017-10-11T01:44:17.113Z,11.70
2017-10-11T01:46:44.593Z,11.80
2017-10-11T01:49:12.066Z,11.80
2017-10-11T01:51:39.559Z,11.70
2017-10-11T01:54:07.031Z,11.60
2017-10-11T01:56:35.277Z,11.40
2017-10-11T01:59:02.766Z,11.40
2017-10-11T02:01:31.282Z,11.40
2017-10-11T02:03:58.757Z,11.40
2017-10-11T02:06:26.250Z,11.50
2017-10-11T02:08:54.493Z,11.40
2017-10-11T02:11:21.961Z,11.50
2017-10-11T02:13:49.457Z,11.40
2017-10-11T02:16:17.696Z,11.30
2017-10-11T02:18:45.169Z,11.30
2017-10-11T02:21:12.668Z,11.20
2017-10-11T02:23:40.137Z,11.20
2017-10-11T02:26:07.609Z,11.20
2017-10-11T02:28:35.106Z,11.20
2017-10-11T02:31:03.342Z,11.30
2017-10-11T02:33:30.820Z,11.30
2017-10-11T02:35:58.317Z,11.30
2017-10-11T02:38:25.789Z,11.30
2017-10-11T02:40:53.262Z,11.30
2017-10-11T02:43:20.765Z,11.30
2017-10-11T02:45:48.237Z,11.30
2017-10-11T02:48:15.709Z,11.30
2017-10-11T02:50:43.209Z,11.30
2017-10-11T02:53:10.681Z,11.40
2017-10-11T02:55:38.155Z,11.40
2017-10-11T02:58:06.415Z,11.40
2017-10-11T03:00:33.890Z,11.40
2017-10-11T03:03:02.405Z,11.50
2017-10-11T03:05:29.905Z,11.50
2017-10-11T03:07:57.373Z,11.60
2017-10-11T03:10:24.846Z,11.60
2017-10-11T03:12:53.106Z,11.70
2017-10-11T03:15:21.357Z,11.70
2017-10-11T03:17:48.838Z,11.70
2017-10-11T03:20:17.117Z,11.70
2017-10-11T03:22:45.357Z,11.70
2017-10-11T03:25:12.829Z,11.60
2017-10-11T03:27:40.320Z,11.70
2017-10-11T03:30:08.553Z,11.70
2017-10-11T03:32:36.026Z,11.70
2017-10-11T03:35:03.525Z,11.70
2017-10-11T03:37:31.306Z,11.80
2017-10-11T03:39:58.781Z,11.80
2017-10-11T03:42:26.278Z,11.80
2017-10-11T03:44:54.801Z,11.80
2017-10-11T03:47:22.273Z,11.80
2017-10-11T03:49:49.761Z,11.80
2017-10-11T03:52:17.234Z,11.80
2017-10-11T03:54:45.470Z,11.90
2017-10-11T03:57:12.979Z,11.90
2017-10-11T03:59:40.452Z,11.90
2017-10-11T04:02:07.934Z,11.90
2017-10-11T04:04:35.425Z,11.80
2017-10-11T04:07:02.897Z,11.80
2017-10-11T04:09:31.133Z,11.80
2017-10-11T04:11:58.624Z,11.90
2017-10-11T04:14:26.861Z,11.80
2017-10-11T04:16:54.605Z,11.80
2017-10-11T04:19:22.098Z,11.70
2017-10-11T04:21:49.569Z,11.70
2017-10-11T04:24:17.041Z,11.60
2017-10-11T04:26:45.298Z,11.60
2017-10-11T04:29:12.769Z,11.60
2017-10-11T04:31:41.005Z,11.60
2017-10-11T04:34:08.498Z,11.60
2017-10-11T04:36:36.733Z,11.60
2017-10-11T04:39:04.210Z,11.60
2017-10-11T04:41:31.698Z,11.60
2017-10-11T04:43:59.933Z,11.60
2017-10-11T04:46:27.406Z,11.50
2017-10-11T04:48:55.125Z,11.50
2017-10-11T04:51:22.597Z,11.50
2017-10-11T04:53:50.074Z,11.50
2017-10-11T04:56:17.573Z,11.60
2017-10-11T04:58:45.050Z,11.50
2017-10-11T05:01:12.522Z,11.50
2017-10-11T05:03:40.020Z,11.50
2017-10-11T05:06:07.738Z,11.50
2017-10-11T05:08:35.217Z,11.50
2017-10-11T05:11:02.710Z,11.50
2017-10-11T05:13:30.955Z,11.50
2017-10-11T05:15:58.436Z,11.50
2017-10-11T05:18:26.694Z,11.40
2017-10-11T05:20:54.169Z,11.50
2017-10-11T05:23:22.412Z,11.30
2017-10-11T05:25:49.901Z,11.30
2017-10-11T05:28:18.137Z,11.20
2017-10-11T05:30:45.609Z,11.20
2017-10-11T05:33:13.103Z,11.20
2017-10-11T05:35:41.337Z,11.00
2017-10-11T05:38:08.809Z,11.00
2017-10-11T05:40:36.301Z,11.00
2017-10-11T05:43:03.789Z,11.00
2017-10-11T05:45:31.261Z,11.00
2017-10-11T05:47:59.518Z,11.00
2017-10-11T05:50:27.276Z,11.00
2017-10-11T05:52:54.749Z,11.00
2017-10-11T05:55:22.240Z,11.00
2017-10-11T05:57:49.709Z,11.10
2017-10-11T06:00:17.950Z,11.10
2017-10-11T06:02:45.444Z,11.10
2017-10-11T06:05:13.678Z,11.20
2017-10-11T06:07:41.366Z,11.20
2017-10-11T06:10:08.861Z,11.30
2017-10-11T06:12:36.338Z,11.30
2017-10-11T06:15:03.818Z,11.40
2017-10-11T06:17:31.311Z,11.40
2017-10-11T06:19:59.545Z,11.30
2017-10-11T06:22:27.017Z,11.30
2017-10-11T06:24:54.515Z,11.30
2017-10-11T06:27:21.987Z,11.40
2017-10-11T06:29:49.465Z,11.40
2017-10-11T06:32:16.958Z,11.40
2017-10-11T06:34:44.437Z,11.20
2017-10-11T06:37:12.674Z,11.40
2017-10-11T06:39:40.169Z,11.40
2017-10-11T06:42:08.410Z,11.10
2017-10-11T06:44:35.885Z,11.10
2017-10-11T06:47:04.149Z,11.30
2017-10-11T06:49:31.618Z,11.30
2017-10-11T06:51:59.865Z,11.30
2017-10-11T06:54:27.357Z,11.30
2017-10-11T06:56:55.601Z,11.40
2017-10-11T06:59:23.077Z,11.40
2017-10-11T07:01:50.569Z,11.50
2017-10-11T07:04:18.058Z,11.50
2017-10-11T07:06:45.533Z,11.60
2017-10-11T07:09:13.026Z,11.70
2017-10-11T07:11:40.503Z,11.80
2017-10-11T07:14:07.978Z,12.00
2017-10-11T07:16:35.473Z,12.10
2017-10-11T07:19:02.946Z,12.30
2017-10-11T07:21:31.182Z,12.50
2017-10-11T07:23:58.929Z,12.40
2017-10-11T07:26:26.401Z,12.50
2017-10-11T07:28:53.874Z,12.70
2017-10-11T07:31:21.381Z,12.70
2017-10-11T07:33:48.869Z,12.80
2017-10-11T07:36:17.107Z,12.90
2017-10-11T07:38:44.602Z,12.90
2017-10-11T07:41:12.348Z,13.00
2017-10-11T07:43:39.820Z,13.20
2017-10-11T07:46:08.077Z,13.20
2017-10-11T07:48:35.549Z,13.20
2017-10-11T07:51:03.026Z,13.20
2017-10-11T07:53:30.521Z,13.30
2017-10-11T07:55:59.033Z,13.60
2017-10-11T07:58:26.506Z,13.60
2017-10-11T08:00:54.009Z,13.60
2017-10-11T08:03:22.253Z,13.80
2017-10-11T08:05:49.733Z,13.80
2017-10-11T08:08:17.998Z,13.90
2017-10-11T08:10:45.722Z,13.90
2017-10-11T08:13:13.194Z,14.10
2017-10-11T08:15:40.690Z,14.10
2017-10-11T08:18:08.934Z,14.10
2017-10-11T08:20:36.405Z,14.10
2017-10-11T08:23:04.129Z,14.00
2017-10-11T08:25:31.609Z,14.20
2017-10-11T08:27:59.085Z,14.40
2017-10-11T08:30:26.581Z,14.30
2017-10-11T08:32:54.054Z,14.40
2017-10-11T08:35:21.529Z,14.40
2017-10-11T08:37:49.277Z,14.50
2017-10-11T08:40:16.749Z,14.60
2017-10-11T08:42:44.227Z,14.70
2017-10-11T08:45:11.725Z,14.60
2017-10-11T08:47:39.198Z,14.70
2017-10-11T08:50:06.670Z,14.70
2017-10-11T08:52:34.163Z,14.70
2017-10-11T08:55:01.632Z,14.90
2017-10-11T08:57:29.101Z,14.80
2017-10-11T08:59:57.359Z,14.80
2017-10-11T09:02:24.837Z,14.80
2017-10-11T09:04:53.073Z,15.00
2017-10-11T09:07:20.565Z,15.00
2017-10-11T09:09:48.805Z,14.90
2017-10-11T09:12:16.280Z,14.80
2017-10-11T09:14:43.778Z,14.90
2017-10-11T09:17:11.249Z,14.90
2017-10-11T09:19:38.721Z,14.90
2017-10-11T09:22:06.210Z,15.10
2017-10-11T09:24:33.682Z,15.20
2017-10-11T09:27:01.918Z,15.40
2017-10-11T09:29:29.413Z,15.30
2017-10-11T09:31:57.653Z,15.30
2017-10-11T09:34:25.124Z,15.20
2017-10-11T09:36:52.622Z,15.30
2017-10-11T09:39:20.097Z,15.30
2017-10-11T09:41:47.572Z,15.30
2017-10-11T09:44:15.089Z,15.40
2017-10-11T09:46:42.565Z,15.60
2017-10-11T09:49:10.042Z,15.90
2017-10-11T09:51:37.538Z,16.00
2017-10-11T09:54:05.018Z,16.20
2017-10-11T09:56:32.811Z,16.20
2017-10-11T09:59:00.305Z,16.30
2017-10-11T10:01:27.783Z,16.30
2017-10-11T10:03:56.047Z,16.20
2017-10-11T10:06:23.534Z,16.20
2017-10-11T10:08:51.059Z,16.00
2017-10-11T10:11:18.533Z,16.10
2017-10-11T10:13:46.794Z,16.50
2017-10-11T10:16:14.271Z,16.50
2017-10-11T10:18:42.509Z,16.80
2017-10-11T10:21:09.997Z,16.80
2017-10-11T10:23:38.518Z,16.90
2017-10-11T10:26:05.989Z,16.90
2017-10-11T10:28:33.485Z,17.10
2017-10-11T10:31:01.725Z,17.20
2017-10-11T10:33:29.198Z,17.20
2017-10-11T10:35:56.690Z,17.30
2017-10-11T10:38:24.956Z,17.30
2017-10-11T10:40:53.197Z,17.40
2017-10-11T10:43:20.689Z,17.40
2017-10-11T10:45:48.930Z,17.30
2017-10-11T10:48:16.401Z,17.30
2017-10-11T10:50:43.893Z,17.40
2017-10-11T10:53:11.366Z,17.50
2017-10-11T10:55:38.841Z,17.70
2017-10-11T10:58:06.337Z,17.70
2017-10-11T11:00:33.810Z,17.70
2017-10-11T11:03:03.065Z,17.70
2017-10-11T11:05:30.558Z,17.70
2017-10-11T11:07:58.798Z,17.90
2017-10-11T11:10:26.270Z,17.90
2017-10-11T11:12:53.767Z,18.20
2017-10-11T11:15:21.258Z,18.50
2017-10-11T11:17:48.733Z,18.70
2017-10-11T11:20:16.230Z,18.70
2017-10-11T11:22:44.465Z,19.00
2017-10-11T11:25:11.937Z,19.00
2017-10-11T11:27:39.429Z,19.10
2017-10-11T11:30:06.903Z,19.20
2017-10-11T11:32:34.376Z,19.30
2017-10-11T11:35:01.868Z,19.40
2017-10-11T11:37:29.338Z,19.50
2017-10-11T11:39:57.866Z,19.50
2017-10-11T11:42:25.365Z,19.50
2017-10-11T11:44:52.833Z,19.40
2017-10-11T11:47:21.077Z,19.10
2017-10-11T11:49:48.573Z,19.10
2017-10-11T11:52:16.809Z,19.30
2017-10-11T11:54:44.285Z,19.30
2017-10-11T11:57:11.778Z,19.40
2017-10-11T11:59:39.250Z,19.50
2017-10-11T12:02:07.498Z,19.50
2017-10-11T12:04:35.758Z,19.40
2017-10-11T12:07:03.237Z,19.30
2017-10-11T12:09:31.477Z,19.30
2017-10-11T12:11:58.969Z,19.30
2017-10-11T12:14:27.207Z,19.40
2017-10-11T12:16:54.678Z,19.40
2017-10-11T12:19:22.178Z,19.50
2017-10-11T12:21:49.650Z,19.50
2017-10-11T12:24:17.130Z,19.70
2017-10-11T12:26:44.637Z,19.80
2017-10-11T12:29:12.111Z,20.00
2017-10-11T12:31:39.585Z,20.60
2017-10-11T12:34:07.078Z,21.30
2017-10-11T12:36:34.549Z,21.80
2017-10-11T12:39:02.785Z,21.80
2017-10-11T12:41:30.277Z,21.70
2017-10-11T12:43:58.523Z,21.30
2017-10-11T12:46:26.768Z,21.10
2017-10-11T12:48:54.261Z,21.10
2017-10-11T12:51:21.729Z,21.00
2017-10-11T12:53:49.201Z,21.60
2017-10-11T12:56:17.728Z,22.50
2017-10-11T12:58:45.201Z,22.50
2017-10-11T13:01:12.669Z,22.40
2017-10-11T13:03:40.167Z,21.80
2017-10-11T13:06:08.407Z,21.40
2017-10-11T13:08:35.882Z,21.40
2017-10-11T13:11:03.376Z,21.30
2017-10-11T13:13:31.149Z,20.90
2017-10-11T13:15:58.678Z,20.80
2017-10-11T13:18:26.942Z,20.80
2017-10-11T13:20:55.177Z,20.70
2017-10-11T13:23:22.649Z,20.60
2017-10-11T13:25:50.157Z,20.80
2017-10-11T13:28:17.629Z,20.80
2017-10-11T13:30:45.101Z,20.80
2017-10-11T13:33:12.669Z,21.20
2017-10-11T13:35:40.138Z,21.60
2017-10-11T13:38:07.611Z,21.50
2017-10-11T13:40:35.115Z,21.30
2017-10-11T13:43:02.590Z,21.30
2017-10-11T13:45:30.061Z,21.20
2017-10-11T13:47:57.560Z,21.00
2017-10-11T13:50:25.797Z,20.80
2017-10-11T13:52:53.273Z,20.80
2017-10-11T13:55:20.781Z,20.70
2017-10-11T13:57:48.267Z,20.70
2017-10-11T14:00:15.742Z,20.60
2017-10-11T14:02:43.238Z,20.50
2017-10-11T14:05:10.713Z,20.20
2017-10-11T14:07:38.183Z,19.80
2017-10-11T14:10:05.678Z,19.60
2017-10-11T14:12:33.917Z,19.60
2017-10-11T14:15:01.394Z,19.60
2017-10-11T14:17:28.885Z,19.60
2017-10-11T14:19:57.125Z,19.40
2017-10-11T14:22:24.599Z,19.40
2017-10-11T14:24:52.867Z,19.30
2017-10-11T14:27:20.336Z,19.20
2017-10-11T14:29:48.573Z,19.00
2017-10-11T14:32:16.070Z,19.00
2017-10-11T14:34:44.308Z,18.70
2017-10-11T14:37:12.887Z,18.60
2017-10-11T14:39:40.381Z,18.60
2017-10-11T14:42:08.629Z,18.30
2017-10-11T14:44:36.101Z,18.30
2017-10-11T14:47:03.817Z,18.20
2017-10-11T14:49:31.586Z,18.20
2017-10-11T14:51:59.061Z,18.20
2017-10-11T14:54:26.549Z,18.20
2017-10-11T14:56:54.022Z,18.20
2017-10-11T14:59:22.261Z,18.10
2017-10-11T15:01:51.266Z,18.10
2017-10-11T15:04:18.742Z,18.00
2017-10-11T15:06:46.982Z,18.00
2017-10-11T15:09:14.473Z,17.90
2017-10-11T15:11:42.710Z,17.80
2017-10-11T15:14:10.955Z,17.70
2017-10-11T15:16:38.449Z,17.70
2017-10-11T15:19:05.921Z,17.60
2017-10-11T15:21:33.393Z,17.60
2017-10-11T15:24:01.652Z,17.50
2017-10-11T15:26:29.127Z,17.40
2017-10-11T15:28:57.365Z,17.40
2017-10-11T15:31:24.863Z,17.40
2017-10-11T15:33:53.102Z,17.30
2017-10-11T15:36:20.577Z,17.30
2017-10-11T15:38:48.070Z,17.20
2017-10-11T15:41:15.571Z,17.20
2017-10-11T15:43:43.816Z,17.10
2017-10-11T15:46:11.314Z,17.10
2017-10-11T15:48:39.047Z,17.00
2017-10-11T15:51:06.518Z,17.00
2017-10-11T15:53:34.013Z,16.90
2017-10-11T15:56:02.541Z,16.90
2017-10-11T15:58:30.014Z,16.90
2017-10-11T16:00:57.513Z,16.80
2017-10-11T16:03:25.748Z,16.70
2017-10-11T16:05:53.224Z,16.70
2017-10-11T16:08:20.717Z,16.60
2017-10-11T16:10:48.959Z,16.50
2017-10-11T16:13:16.433Z,16.50
2017-10-11T16:15:44.695Z,16.30
2017-10-11T16:18:12.165Z,16.30
2017-10-11T16:20:40.402Z,16.20
2017-10-11T16:23:07.891Z,16.20
2017-10-11T16:25:35.361Z,16.10
2017-10-11T16:28:03.597Z,16.00
2017-10-11T16:30:31.086Z,15.90
2017-10-11T16:32:59.329Z,15.90
2017-10-11T16:35:26.801Z,15.80
2017-10-11T16:37:54.298Z,15.80
2017-10-11T16:40:21.771Z,15.70
2017-10-11T16:42:49.241Z,15.60
2017-10-11T16:45:16.734Z,15.40
2017-10-11T16:47:45.274Z,14.80
2017-10-11T16:50:13.037Z,14.80
2017-10-11T16:52:40.530Z,14.70
2017-10-11T16:55:08.002Z,14.60
2017-10-11T16:57:35.498Z,14.50
2017-10-11T17:00:03.081Z,14.50
2017-10-11T17:02:30.565Z,14.40
2017-10-11T17:04:58.044Z,14.20
2017-10-11T17:07:26.410Z,14.10
2017-10-11T17:09:53.881Z,14.00
2017-10-11T17:12:22.121Z,14.00
2017-10-11T17:14:49.808Z,14.00
2017-10-11T17:17:17.321Z,13.90
2017-10-11T17:19:44.819Z,13.90
2017-10-11T17:22:13.093Z,13.70
2017-10-11T17:24:40.567Z,13.70
2017-10-11T17:27:08.809Z,13.60
2017-10-11T17:29:36.302Z,13.60
2017-10-11T17:32:04.541Z,13.50
2017-10-11T17:34:32.273Z,13.50
2017-10-11T17:36:59.772Z,13.50
2017-10-11T17:39:27.240Z,13.40
2017-10-11T17:41:54.717Z,13.30
2017-10-11T17:44:22.977Z,13.20
2017-10-11T17:46:50.450Z,13.20
2017-10-11T17:49:18.686Z,13.00
2017-10-11T17:51:46.181Z,13.00
2017-10-11T17:54:14.480Z,12.80
2017-10-11T17:56:41.976Z,12.80
2017-10-11T17:59:09.468Z,12.80
2017-10-11T18:01:37.721Z,12.70
2017-10-11T18:04:05.193Z,12.70
2017-10-11T18:06:33.453Z,12.50
2017-10-11T18:09:00.926Z,12.50
2017-10-11T18:11:29.186Z,12.30
2017-10-11T18:13:56.681Z,12.30
2017-10-11T18:16:24.158Z,12.30
2017-10-11T18:18:51.628Z,12.30
2017-10-11T18:21:19.117Z,12.20
2017-10-11T18:23:46.590Z,12.20
2017-10-11T18:26:14.899Z,12.00
2017-10-11T18:28:42.419Z,12.00
2017-10-11T18:31:10.790Z,11.90
2017-10-11T18:33:39.045Z,11.80
2017-10-11T18:36:06.629Z,11.80
2017-10-11T18:38:34.881Z,11.70
2017-10-11T18:41:02.359Z,11.60
2017-10-11T18:43:29.853Z,11.60
2017-10-11T18:45:57.390Z,11.40
2017-10-11T18:48:25.639Z,11.50
2017-10-11T18:50:53.150Z,11.40
2017-10-11T18:53:20.624Z,11.40
2017-10-11T18:55:48.097Z,11.40
2017-10-11T18:58:15.593Z,11.40
2017-10-11T19:00:43.838Z,11.30
2017-10-11T19:03:11.309Z,11.20
2017-10-11T19:05:38.806Z,11.30
2017-10-11T19:08:06.281Z,11.20
2017-10-11T19:10:33.753Z,11.20
2017-10-11T19:13:01.255Z,11.20
2017-10-11T19:15:29.493Z,11.10
2017-10-11T19:17:56.968Z,11.10
2017-10-11T19:20:24.459Z,11.10
2017-10-11T19:22:51.962Z,10.90
2017-10-11T19:25:19.449Z,10.70
2017-10-11T19:27:47.206Z,10.70
2017-10-11T19:30:14.689Z,10.60
2017-10-11T19:32:42.289Z,10.60
2017-10-11T19:35:09.950Z,10.50
2017-10-11T19:37:37.434Z,10.50
2017-10-11T19:40:04.905Z,10.40
2017-10-11T19:42:33.166Z,10.30
2017-10-11T19:45:00.697Z,10.30
2017-10-11T19:47:28.209Z,10.30
2017-10-11T19:49:56.465Z,10.10
2017-10-11T19:52:23.940Z,10.10
2017-10-11T19:54:52.458Z,9.60
2017-10-11T19:57:20.218Z,9.60
2017-10-11T19:59:47.694Z,9.60
2017-10-11T20:02:15.167Z,9.60
2017-10-11T20:04:42.658Z,9.70
2017-10-11T20:07:10.897Z,9.80
2017-10-11T20:09:39.137Z,9.90
2017-10-11T20:12:06.646Z,9.90
2017-10-11T20:14:34.118Z,9.90
2017-10-11T20:17:02.478Z,9.90
2017-10-11T20:19:29.971Z,9.80
2017-10-11T20:21:57.441Z,9.80
2017-10-11T20:24:24.910Z,9.70
2017-10-11T20:26:52.405Z,9.70
2017-10-11T20:29:19.873Z,9.70
2017-10-11T20:31:47.367Z,9.70
2017-10-11T20:34:14.894Z,9.70
2017-10-11T20:36:43.129Z,9.70
2017-10-11T20:39:10.606Z,9.70
2017-10-11T20:41:38.093Z,9.70
2017-10-11T20:44:06.330Z,9.60
2017-10-11T20:46:34.066Z,9.60
2017-10-11T20:49:01.553Z,9.50
2017-10-11T20:51:29.066Z,9.50
2017-10-11T20:53:56.537Z,9.50
2017-10-11T20:56:24.415Z,9.40
2017-10-11T20:58:52.167Z,9.30
2017-10-11T21:01:19.641Z,9.20
2017-10-11T21:03:47.133Z,9.20
2017-10-11T21:06:15.373Z,9.20
2017-10-11T21:08:42.844Z,9.20
2017-10-11T21:11:10.337Z,9.20
2017-10-11T21:13:38.578Z,9.10
2017-10-11T21:16:06.305Z,9.10
2017-10-11T21:18:33.805Z,9.10
2017-10-11T21:21:01.289Z,9.10
2017-10-11T21:23:29.557Z,9.10
2017-10-11T21:25:57.814Z,8.90
2017-10-11T21:28:25.289Z,8.90
2017-10-11T21:30:53.529Z,8.90
2017-10-11T21:33:21.031Z,8.90
2017-10-11T21:35:49.548Z,8.80
2017-10-11T21:38:17.018Z,8.80
2017-10-11T21:40:44.517Z,8.70
2017-10-11T21:43:12.754Z,8.70
2017-10-11T21:45:40.413Z,8.70
2017-10-11T21:48:07.905Z,8.70
2017-10-11T21:50:36.148Z,8.80
2017-10-11T21:53:03.621Z,8.80
2017-10-11T21:55:31.118Z,8.80
2017-10-11T21:57:58.590Z,8.80
2017-10-11T22:00:26.062Z,8.70
2017-10-11T22:02:53.554Z,8.70
2017-10-11T22:05:21.021Z,8.70
2017-10-11T22:07:48.494Z,8.70
2017-10-11T22:10:16.752Z,8.60
2017-10-11T22:12:44.228Z,8.60
2017-10-11T22:15:11.701Z,8.60
2017-10-11T22:17:39.190Z,8.50
2017-10-11T22:20:06.658Z,8.50
2017-10-11T22:22:34.136Z,8.40
2017-10-11T22:25:01.643Z,8.30
2017-10-11T22:27:29.112Z,8.40
2017-10-11T22:29:56.582Z,8.30
2017-10-11T22:32:24.854Z,8.20
2017-10-11T22:34:52.338Z,8.30
2017-10-11T22:37:19.814Z,8.30
2017-10-11T22:39:48.333Z,8.30
2017-10-11T22:42:15.825Z,8.30
2017-10-11T22:44:43.302Z,8.30
2017-10-11T22:47:11.567Z,7.90
2017-10-11T22:49:39.042Z,7.90
2017-10-11T22:52:07.293Z,7.90
2017-10-11T22:54:34.797Z,7.90
2017-10-11T22:57:02.270Z,7.90
2017-10-11T22:59:29.741Z,7.90
2017-10-11T23:01:57.233Z,7.90
2017-10-11T23:04:24.705Z,7.90
2017-10-11T23:06:52.177Z,7.90
2017-10-11T23:09:19.673Z,7.90
2017-10-11T23:11:47.145Z,7.80
2017-10-11T23:14:14.616Z,7.80
2017-10-11T23:16:42.113Z,7.80
2017-10-11T23:19:09.586Z,7.80
2017-10-11T23:21:37.062Z,7.80
2017-10-11T23:24:04.561Z,7.80
2017-10-11T23:26:32.810Z,7.60
2017-10-11T23:29:00.281Z,7.60
2017-10-11T23:31:27.777Z,7.60
2017-10-11T23:33:55.249Z,7.60
2017-10-11T23:36:22.714Z,7.60
2017-10-11T23:38:50.210Z,7.70
2017-10-11T23:41:17.690Z,7.60
2017-10-11T23:43:46.009Z,7.60
2017-10-11T23:46:13.509Z,7.60
2017-10-11T23:48:42.608Z,7.60
2017-10-11T23:51:10.314Z,7.60
2017-10-11T23:53:37.814Z,7.60
2017-10-11T23:56:05.286Z,7.60
2017-10-11T23:58:33.521Z,7.60
